createdAt,value
2023-04-20T00:00:09.421Z,3.05
2023-04-20T00:02:36.966Z,3.20
2023-04-20T00:05:05.541Z,3.17
2023-04-20T00:07:33.185Z,2.70
2023-04-20T00:10:00.586Z,2.65
2023-04-20T00:12:27.379Z,3.00
2023-04-20T00:14:54.093Z,2.85
2023-04-20T00:17:20.979Z,3.00
2023-04-20T00:19:47.865Z,2.92
2023-04-20T00:22:14.588Z,3.15
2023-04-20T00:24:41.301Z,3.15
2023-04-20T00:27:08.119Z,2.95
2023-04-20T00:29:34.865Z,2.90
2023-04-20T00:32:01.592Z,3.22
2023-04-20T00:34:28.337Z,3.20
2023-04-20T00:36:55.025Z,2.88
2023-04-20T00:39:21.695Z,3.10
2023-04-20T00:41:48.405Z,2.70
2023-04-20T00:44:15.240Z,2.83
2023-04-20T00:46:42.169Z,2.85
2023-04-20T00:49:09.930Z,2.88
2023-04-20T00:51:36.905Z,3.17
2023-04-20T00:54:03.680Z,2.97
2023-04-20T00:56:30.456Z,2.60
2023-04-20T00:58:57.162Z,2.92
2023-04-20T01:01:24.496Z,2.65
2023-04-20T01:03:51.270Z,3.10
2023-04-20T01:06:18.206Z,2.78
2023-04-20T01:08:51.940Z,2.70
2023-04-20T01:11:18.744Z,2.85
2023-04-20T01:13:45.572Z,2.55
2023-04-20T01:16:12.874Z,2.88
2023-04-20T01:18:44.109Z,2.75
2023-04-20T01:21:12.251Z,2.60
2023-04-20T01:23:39.067Z,2.80
2023-04-20T01:26:10.640Z,2.67
2023-04-20T01:28:37.970Z,3.00
2023-04-20T01:31:06.364Z,2.97
2023-04-20T01:33:33.454Z,3.03
2023-04-20T01:36:00.459Z,3.17
2023-04-20T01:38:27.911Z,2.83
2023-04-20T01:40:55.346Z,3.00
2023-04-20T01:43:23.013Z,3.42
2023-04-20T01:45:49.696Z,2.55
2023-04-20T01:48:16.488Z,2.92
2023-04-20T01:50:43.239Z,3.00
2023-04-20T01:53:10.427Z,2.95
2023-04-20T01:55:37.252Z,3.00
2023-04-20T01:58:04.041Z,2.97
2023-04-20T02:00:30.982Z,3.13
2023-04-20T02:02:57.903Z,2.97
2023-04-20T02:05:25.019Z,2.95
2023-04-20T02:07:51.918Z,3.10
2023-04-20T02:10:18.786Z,3.03
2023-04-20T02:12:45.505Z,3.17
2023-04-20T02:15:12.221Z,3.30
2023-04-20T02:17:39.015Z,3.55
2023-04-20T02:20:07.258Z,3.40
2023-04-20T02:22:35.077Z,3.47
2023-04-20T02:25:02.490Z,3.30
2023-04-20T02:27:29.215Z,3.88
2023-04-20T02:29:56.349Z,4.00
2023-04-20T02:32:23.294Z,3.75
2023-04-20T02:34:49.993Z,3.72
2023-04-20T02:37:16.767Z,3.80
2023-04-20T02:39:43.503Z,3.83
2023-04-20T02:42:10.154Z,4.07
2023-04-20T02:44:36.901Z,4.25
2023-04-20T02:47:03.613Z,4.13
2023-04-20T02:49:30.385Z,4.47
2023-04-20T02:51:57.069Z,4.72
2023-04-20T02:54:23.783Z,4.28
2023-04-20T02:56:50.508Z,4.65
2023-04-20T02:59:17.526Z,4.50
2023-04-20T03:01:44.460Z,4.93
2023-04-20T03:04:13.804Z,4.82
2023-04-20T03:06:40.650Z,4.90
2023-04-20T03:09:08.886Z,4.78
2023-04-20T03:11:35.800Z,4.80
2023-04-20T03:14:02.621Z,4.95
2023-04-20T03:16:29.535Z,4.55
2023-04-20T03:18:56.459Z,5.10
2023-04-20T03:21:23.403Z,5.22
2023-04-20T03:23:50.184Z,4.32
2023-04-20T03:26:17.803Z,4.47
2023-04-20T03:28:44.501Z,4.90
2023-04-20T03:31:11.781Z,4.90
2023-04-20T03:33:38.504Z,4.60
2023-04-20T03:36:06.356Z,4.22
2023-04-20T03:38:33.147Z,4.43
2023-04-20T03:40:59.868Z,4.07
2023-04-20T03:43:26.619Z,4.18
2023-04-20T03:45:53.341Z,4.10
2023-04-20T03:48:20.096Z,4.72
2023-04-20T03:50:46.770Z,4.30
2023-04-20T03:53:13.464Z,4.22
2023-04-20T03:55:40.120Z,4.10
2023-04-20T03:58:07.078Z,4.38
2023-04-20T04:00:33.759Z,4.07
2023-04-20T04:03:00.689Z,4.20
2023-04-20T04:05:27.964Z,3.95
2023-04-20T04:07:55.009Z,4.53
2023-04-20T04:10:21.832Z,3.90
2023-04-20T04:12:48.561Z,4.07
2023-04-20T04:15:15.371Z,3.78
2023-04-20T04:17:42.111Z,3.97
2023-04-20T04:20:09.534Z,3.50
2023-04-20T04:22:36.208Z,3.80
2023-04-20T04:25:03.252Z,3.50
2023-04-20T04:27:34.685Z,3.25
2023-04-20T04:30:03.560Z,3.55
2023-04-20T04:32:30.592Z,3.00
2023-04-20T04:34:58.133Z,3.28
2023-04-20T04:37:24.858Z,3.30
2023-04-20T04:39:51.623Z,3.30
2023-04-20T04:42:18.442Z,3.25
2023-04-20T04:44:45.166Z,3.17
2023-04-20T04:47:12.185Z,3.00
2023-04-20T04:49:40.790Z,2.80
2023-04-20T04:52:08.689Z,2.75
2023-04-20T04:54:35.416Z,2.67
2023-04-20T04:57:02.583Z,3.05
2023-04-20T04:59:29.331Z,2.72
2023-04-20T05:01:56.308Z,2.50
2023-04-20T05:04:23.180Z,3.10
2023-04-20T05:06:49.981Z,2.65
2023-04-20T05:09:16.841Z,2.20
2023-04-20T05:11:43.889Z,2.47
2023-04-20T05:14:10.651Z,2.53
2023-04-20T05:16:37.372Z,2.58
2023-04-20T05:19:04.237Z,2.60
2023-04-20T05:21:30.966Z,3.00
2023-04-20T05:23:57.650Z,2.80
2023-04-20T05:26:24.393Z,2.65
2023-04-20T05:28:51.411Z,2.45
2023-04-20T05:31:18.191Z,2.30
2023-04-20T05:33:44.900Z,2.42
2023-04-20T05:36:11.734Z,2.53
2023-04-20T05:38:39.198Z,2.58
2023-04-20T05:41:06.527Z,2.80
2023-04-20T05:43:33.295Z,2.80
2023-04-20T05:46:00.013Z,2.67
2023-04-20T05:48:30.309Z,2.75
2023-04-20T05:50:57.224Z,3.08
2023-04-20T05:53:23.931Z,2.65
2023-04-20T05:55:50.590Z,2.60
2023-04-20T05:58:17.526Z,2.70
2023-04-20T06:00:44.522Z,2.55
2023-04-20T06:03:11.441Z,2.60
2023-04-20T06:05:38.441Z,2.90
2023-04-20T06:08:05.254Z,3.10
2023-04-20T06:10:34.263Z,2.75
2023-04-20T06:13:01.306Z,2.83
2023-04-20T06:15:28.430Z,3.03
2023-04-20T06:17:55.369Z,3.03
2023-04-20T06:20:22.425Z,2.80
2023-04-20T06:22:49.510Z,3.22
2023-04-20T06:25:16.248Z,2.97
2023-04-20T06:27:43.174Z,2.90
2023-04-20T06:30:10.569Z,3.10
2023-04-20T06:32:38.100Z,2.97
2023-04-20T06:35:06.158Z,3.03
2023-04-20T06:37:32.979Z,3.40
2023-04-20T06:40:00.284Z,3.03
2023-04-20T06:42:27.165Z,2.83
2023-04-20T06:44:53.963Z,3.33
2023-04-20T06:47:20.792Z,3.28
2023-04-20T06:49:47.573Z,3.30
2023-04-20T06:52:14.238Z,3.05
2023-04-20T06:54:40.929Z,2.85
2023-04-20T06:57:07.652Z,2.92
2023-04-20T06:59:34.353Z,3.45
2023-04-20T07:02:01.554Z,3.65
2023-04-20T07:04:28.410Z,3.38
2023-04-20T07:06:55.166Z,3.75
2023-04-20T07:09:22.999Z,3.72
2023-04-20T07:11:49.977Z,4.05
2023-04-20T07:14:16.681Z,4.20
2023-04-20T07:16:43.443Z,4.18
2023-04-20T07:19:10.401Z,4.40
2023-04-20T07:21:37.195Z,3.90
2023-04-20T07:24:04.097Z,3.40
2023-04-20T07:26:31.178Z,4.10
2023-04-20T07:28:57.850Z,3.80
2023-04-20T07:31:24.658Z,4.15
2023-04-20T07:33:51.436Z,3.80
2023-04-20T07:36:18.135Z,3.63
2023-04-20T07:38:44.839Z,4.00
2023-04-20T07:41:12.000Z,3.83
2023-04-20T07:43:41.909Z,4.35
2023-04-20T07:46:08.691Z,3.88
2023-04-20T07:48:35.631Z,3.53
2023-04-20T07:51:02.539Z,3.55
2023-04-20T07:53:29.624Z,3.60
2023-04-20T07:55:56.440Z,3.42
2023-04-20T07:58:23.359Z,4.30
2023-04-20T08:00:50.057Z,3.20
2023-04-20T08:03:17.023Z,3.80
2023-04-20T08:05:44.262Z,4.22
2023-04-20T08:08:11.090Z,4.00
2023-04-20T08:10:37.859Z,4.35
2023-04-20T08:13:04.648Z,3.85
2023-04-20T08:15:31.612Z,4.68
2023-04-20T08:17:58.662Z,4.05
2023-04-20T08:20:25.471Z,4.38
2023-04-20T08:22:53.293Z,3.83
2023-04-20T08:25:20.226Z,4.50
2023-04-20T08:27:47.063Z,4.43
2023-04-20T08:30:13.875Z,5.05
2023-04-20T08:32:41.167Z,4.97
2023-04-20T08:35:08.686Z,4.57
2023-04-20T08:37:35.814Z,4.70
2023-04-20T08:40:02.701Z,4.93
2023-04-20T08:42:29.465Z,5.10
2023-04-20T08:44:57.476Z,4.80
2023-04-20T08:47:24.679Z,4.78
2023-04-20T08:49:54.697Z,4.82
2023-04-20T08:52:21.451Z,4.45
2023-04-20T08:54:55.848Z,4.75
2023-04-20T08:57:23.163Z,5.00
2023-04-20T08:59:49.946Z,4.82
2023-04-20T09:02:16.793Z,4.75
2023-04-20T09:04:43.783Z,5.22
2023-04-20T09:07:18.605Z,5.57
2023-04-20T09:09:59.897Z,5.25
2023-04-20T09:12:28.025Z,5.57
2023-04-20T09:14:55.930Z,5.72
2023-04-20T09:17:37.054Z,6.10
2023-04-20T09:20:07.539Z,6.28
2023-04-20T09:22:36.258Z,6.20
2023-04-20T09:25:19.160Z,5.72
2023-04-20T09:28:16.387Z,6.72
2023-04-20T09:30:45.450Z,6.05
2023-04-20T09:33:14.318Z,6.65
2023-04-20T09:35:45.433Z,6.72
2023-04-20T09:38:16.385Z,6.65
2023-04-20T09:40:43.397Z,5.82
2023-04-20T09:43:17.773Z,5.57
2023-04-20T09:45:44.857Z,5.95
2023-04-20T09:48:12.299Z,5.32
2023-04-20T09:50:48.449Z,5.65
2023-04-20T09:53:17.963Z,6.00
2023-04-20T09:55:50.078Z,5.38
2023-04-20T09:58:20.895Z,5.22
2023-04-20T10:00:48.005Z,5.18
2023-04-20T10:03:19.563Z,5.53
2023-04-20T10:08:13.458Z,5.10
2023-04-20T10:10:47.836Z,5.50
2023-04-20T10:13:15.412Z,5.50
2023-04-20T10:15:42.866Z,5.38
2023-04-20T10:18:20.955Z,4.68
2023-04-20T10:20:48.003Z,4.75
2023-04-20T10:23:16.175Z,5.07
2023-04-20T10:25:45.348Z,5.07
2023-04-20T10:28:12.178Z,5.10
2023-04-20T10:30:50.755Z,5.00
2023-04-20T10:33:18.108Z,5.50
2023-04-20T10:35:47.906Z,5.35
2023-04-20T10:38:16.118Z,5.30
2023-04-20T10:40:43.199Z,5.47
2023-04-20T10:43:21.298Z,6.10
2023-04-20T10:45:49.506Z,6.00
2023-04-20T10:48:18.131Z,5.70
2023-04-20T10:50:45.387Z,5.85
2023-04-20T10:53:23.358Z,5.40
2023-04-20T10:56:00.574Z,6.18
2023-04-20T10:58:27.481Z,5.50
2023-04-20T11:01:01.825Z,5.80
2023-04-20T11:03:30.313Z,5.60
2023-04-20T11:06:04.247Z,5.75
2023-04-20T11:08:41.764Z,5.80
2023-04-20T11:11:24.906Z,6.63
2023-04-20T11:13:52.006Z,5.90
2023-04-20T11:16:19.281Z,5.85
2023-04-20T11:19:05.073Z,6.25
2023-04-20T11:21:41.503Z,6.65
2023-04-20T11:24:38.187Z,6.20
2023-04-20T11:27:05.135Z,6.35
2023-04-20T11:29:35.888Z,6.43
2023-04-20T11:32:05.679Z,6.30
2023-04-20T11:34:33.798Z,5.82
2023-04-20T11:37:09.727Z,6.32
2023-04-20T11:39:37.700Z,6.28
2023-04-20T11:42:04.805Z,6.70
2023-04-20T11:44:31.686Z,6.70
2023-04-20T11:46:59.014Z,6.70
2023-04-20T11:49:27.154Z,7.13
2023-04-20T11:51:54.191Z,6.50
2023-04-20T11:54:22.004Z,6.45
2023-04-20T11:56:48.975Z,6.80
2023-04-20T11:59:16.946Z,6.78
2023-04-20T12:01:43.834Z,6.70
2023-04-20T12:04:10.942Z,6.60
2023-04-20T12:06:37.943Z,7.13
2023-04-20T12:09:06.296Z,7.00
2023-04-20T12:11:33.095Z,6.63
2023-04-20T12:14:00.354Z,6.80
2023-04-20T12:16:27.135Z,6.90
2023-04-20T12:18:54.325Z,6.88
2023-04-20T12:21:21.327Z,7.28
2023-04-20T12:23:49.635Z,7.18
2023-04-20T12:26:16.761Z,6.93
2023-04-20T12:28:45.114Z,6.32
2023-04-20T12:31:12.059Z,6.40
2023-04-20T12:33:38.873Z,6.18
2023-04-20T12:36:06.178Z,6.60
2023-04-20T12:38:32.877Z,6.60
2023-04-20T12:40:59.612Z,7.15
2023-04-20T12:43:26.706Z,6.43
2023-04-20T12:45:53.391Z,6.10
2023-04-20T12:48:20.606Z,6.13
2023-04-20T12:50:47.461Z,6.15
2023-04-20T12:53:14.260Z,5.97
2023-04-20T12:55:41.024Z,6.53
2023-04-20T12:58:07.726Z,6.47
2023-04-20T13:00:34.642Z,6.05
2023-04-20T13:03:01.860Z,6.13
2023-04-20T13:05:29.144Z,6.07
2023-04-20T13:07:56.092Z,6.65
2023-04-20T13:10:22.896Z,6.30
2023-04-20T13:12:51.750Z,7.00
2023-04-20T13:15:31.799Z,7.38
2023-04-20T13:18:06.116Z,7.45
2023-04-20T13:20:33.056Z,7.43
2023-04-20T13:23:01.441Z,6.95
2023-04-20T13:25:32.582Z,6.85
2023-04-20T13:28:00.659Z,7.03
2023-04-20T13:30:27.572Z,6.50
2023-04-20T13:32:54.343Z,6.45
2023-04-20T13:35:21.244Z,6.10
2023-04-20T13:37:48.154Z,6.88
2023-04-20T13:40:14.956Z,6.13
2023-04-20T13:42:41.665Z,6.75
2023-04-20T13:45:10.270Z,6.57
2023-04-20T13:47:38.544Z,5.70
2023-04-20T13:50:06.728Z,5.57
2023-04-20T13:52:33.554Z,6.55
2023-04-20T13:55:00.322Z,5.85
2023-04-20T13:57:27.156Z,6.53
2023-04-20T13:59:54.022Z,6.40
2023-04-20T14:02:20.911Z,6.78
2023-04-20T14:04:48.090Z,7.03
2023-04-20T14:07:15.071Z,6.90
2023-04-20T14:09:44.362Z,7.32
2023-04-20T14:12:12.068Z,7.80
2023-04-20T14:14:38.956Z,7.10
2023-04-20T14:17:06.039Z,7.47
2023-04-20T14:19:32.734Z,7.80
2023-04-20T14:21:59.444Z,8.07
2023-04-20T14:24:26.155Z,7.50
2023-04-20T14:26:52.870Z,8.30
2023-04-20T14:29:19.737Z,7.75
2023-04-20T14:31:46.650Z,8.10
2023-04-20T14:34:14.178Z,7.45
2023-04-20T14:36:41.162Z,7.25
2023-04-20T14:39:08.068Z,6.68
2023-04-20T14:41:35.155Z,6.38
2023-04-20T14:44:01.970Z,6.70
2023-04-20T14:46:29.062Z,6.60
2023-04-20T14:48:55.790Z,6.72
2023-04-20T14:51:22.458Z,6.85
2023-04-20T14:53:49.225Z,6.80
2023-04-20T14:56:16.473Z,6.03
2023-04-20T14:58:43.273Z,6.18
2023-04-20T15:01:09.962Z,5.93
2023-04-20T15:03:37.107Z,6.10
2023-04-20T15:06:04.067Z,6.65
2023-04-20T15:08:30.840Z,6.05
2023-04-20T15:10:57.693Z,6.35
2023-04-20T15:13:25.416Z,5.78
2023-04-20T15:15:55.065Z,6.00
2023-04-20T15:18:22.348Z,6.45
2023-04-20T15:20:52.368Z,6.38
2023-04-20T15:23:19.665Z,5.90
2023-04-20T15:25:46.483Z,6.13
2023-04-20T15:28:13.417Z,6.85
2023-04-20T15:30:41.334Z,6.50
2023-04-20T15:33:08.392Z,6.78
2023-04-20T15:35:35.293Z,6.63
2023-04-20T15:38:02.302Z,6.78
2023-04-20T15:40:29.279Z,6.63
2023-04-20T15:42:56.037Z,6.70
2023-04-20T15:45:23.244Z,6.63
2023-04-20T15:47:51.167Z,6.57
2023-04-20T15:50:18.255Z,6.75
2023-04-20T15:52:45.832Z,6.60
2023-04-20T15:55:12.773Z,6.50
2023-04-20T15:57:39.598Z,6.80
2023-04-20T16:00:08.272Z,6.75
2023-04-20T16:02:36.043Z,6.35
2023-04-20T16:05:03.106Z,6.47
2023-04-20T16:07:29.884Z,6.45
2023-04-20T16:09:56.706Z,6.90
2023-04-20T16:12:23.596Z,6.63
2023-04-20T16:14:51.790Z,6.57
2023-04-20T16:17:20.101Z,6.50
2023-04-20T16:19:46.897Z,6.53
2023-04-20T16:22:14.165Z,6.57
2023-04-20T16:24:40.996Z,6.80
2023-04-20T16:27:07.807Z,7.28
2023-04-20T16:29:34.686Z,6.68
2023-04-20T16:32:01.340Z,8.02
2023-04-20T16:34:28.065Z,6.88
2023-04-20T16:36:54.764Z,6.97
2023-04-20T16:39:21.480Z,7.45
2023-04-20T16:41:48.182Z,7.45
2023-04-20T16:44:16.177Z,7.28
2023-04-20T16:46:44.071Z,7.65
2023-04-20T16:49:10.886Z,7.55
2023-04-20T16:51:37.958Z,7.20
2023-04-20T16:54:05.002Z,7.43
2023-04-20T16:56:31.764Z,7.35
2023-04-20T16:58:58.595Z,6.80
2023-04-20T17:01:25.409Z,7.43
2023-04-20T17:03:52.402Z,8.13
2023-04-20T17:06:19.350Z,7.43
2023-04-20T17:08:47.262Z,7.50
2023-04-20T17:11:14.089Z,6.97
2023-04-20T17:13:41.014Z,7.50
2023-04-20T17:16:07.765Z,7.38
2023-04-20T17:18:35.187Z,7.60
2023-04-20T17:21:02.311Z,7.10
2023-04-20T17:23:29.621Z,7.80
2023-04-20T17:25:57.330Z,7.53
2023-04-20T17:28:24.149Z,7.85
2023-04-20T17:30:50.895Z,7.95
2023-04-20T17:33:17.942Z,7.65
2023-04-20T17:35:46.370Z,7.72
2023-04-20T17:38:13.500Z,7.30
2023-04-20T17:40:40.516Z,7.85
2023-04-20T17:43:07.397Z,7.50
2023-04-20T17:45:34.178Z,7.40
2023-04-20T17:48:01.064Z,7.53
2023-04-20T17:50:27.774Z,7.10
2023-04-20T17:52:54.498Z,7.45
2023-04-20T17:55:21.224Z,7.75
2023-04-20T17:57:47.970Z,7.30
2023-04-20T18:00:16.155Z,7.60
2023-04-20T18:02:42.964Z,7.50
2023-04-20T18:05:10.402Z,7.60
2023-04-20T18:07:37.184Z,7.65
2023-04-20T18:10:05.045Z,7.07
2023-04-20T18:12:31.825Z,7.50
2023-04-20T18:14:58.516Z,7.57
2023-04-20T18:17:25.367Z,7.32
2023-04-20T18:19:52.134Z,7.40
2023-04-20T18:22:18.866Z,7.40
2023-04-20T18:24:45.666Z,7.72
2023-04-20T18:27:12.408Z,7.57
2023-04-20T18:29:39.093Z,7.43
2023-04-20T18:32:05.945Z,7.40
2023-04-20T18:34:32.699Z,7.22
2023-04-20T18:36:59.564Z,7.68
2023-04-20T18:39:26.429Z,7.82
2023-04-20T18:41:53.239Z,7.50
2023-04-20T18:44:20.291Z,8.48
2023-04-20T18:46:47.380Z,7.65
2023-04-20T18:49:14.136Z,8.20
2023-04-20T18:51:41.055Z,8.45
2023-04-20T18:54:07.790Z,8.35
2023-04-20T18:56:34.594Z,8.43
2023-04-20T18:59:01.610Z,7.53
2023-04-20T19:01:28.671Z,8.10
2023-04-20T19:03:55.830Z,8.25
2023-04-20T19:06:22.817Z,7.78
2023-04-20T19:08:52.525Z,7.93
2023-04-20T19:11:19.392Z,7.63
2023-04-20T19:13:46.101Z,7.88
2023-04-20T19:16:13.352Z,7.38
2023-04-20T19:18:40.163Z,7.55
2023-04-20T19:21:07.062Z,7.63
2023-04-20T19:23:35.723Z,8.35
2023-04-20T19:26:02.767Z,7.72
2023-04-20T19:28:30.108Z,7.40
2023-04-20T19:30:57.998Z,8.13
2023-04-20T19:33:24.805Z,8.07
2023-04-20T19:35:51.736Z,8.05
2023-04-20T19:38:24.349Z,8.45
2023-04-20T19:40:51.858Z,7.88
2023-04-20T19:43:18.672Z,7.95
2023-04-20T19:45:45.465Z,8.45
2023-04-20T19:48:12.364Z,7.88
2023-04-20T19:50:39.346Z,7.90
2023-04-20T19:53:06.540Z,8.18
2023-04-20T19:55:33.443Z,8.25
2023-04-20T19:58:00.212Z,7.70
2023-04-20T20:00:27.054Z,8.73
2023-04-20T20:02:53.870Z,8.60
2023-04-20T20:05:20.822Z,8.82
2023-04-20T20:07:47.548Z,8.80
2023-04-20T20:10:14.320Z,8.73
2023-04-20T20:12:41.015Z,9.23
2023-04-20T20:15:08.080Z,9.07
2023-04-20T20:17:34.943Z,9.30
2023-04-20T20:20:02.275Z,9.15
2023-04-20T20:22:29.130Z,8.75
2023-04-20T20:24:57.266Z,9.00
2023-04-20T20:27:23.948Z,8.98
2023-04-20T20:29:50.720Z,9.30
2023-04-20T20:32:17.517Z,9.00
2023-04-20T20:34:44.197Z,9.00
2023-04-20T20:37:10.987Z,8.95
2023-04-20T20:39:38.857Z,9.30
2023-04-20T20:42:07.723Z,8.40
2023-04-20T20:44:38.912Z,9.05
2023-04-20T20:47:06.656Z,9.18
2023-04-20T20:49:33.725Z,9.27
2023-04-20T20:52:02.097Z,9.18
2023-04-20T20:54:28.905Z,8.90
2023-04-20T20:56:55.636Z,9.07
2023-04-20T20:59:22.374Z,9.93
2023-04-20T21:01:49.163Z,10.15
2023-04-20T21:04:15.959Z,8.70
2023-04-20T21:06:42.679Z,8.98
2023-04-20T21:09:10.685Z,9.38
2023-04-20T21:11:37.446Z,9.15
2023-04-20T21:14:04.155Z,9.70
2023-04-20T21:16:30.923Z,8.82
2023-04-20T21:18:57.749Z,8.93
2023-04-20T21:21:24.458Z,9.50
2023-04-20T21:23:51.233Z,9.65
2023-04-20T21:26:17.993Z,9.85
2023-04-20T21:28:44.782Z,9.85
2023-04-20T21:31:11.543Z,10.13
2023-04-20T21:33:38.461Z,10.35
2023-04-20T21:36:05.685Z,10.25
2023-04-20T21:38:32.367Z,10.52
2023-04-20T21:40:59.088Z,10.70
2023-04-20T21:43:25.797Z,10.52
2023-04-20T21:45:52.769Z,11.32
2023-04-20T21:48:19.612Z,10.48
2023-04-20T21:50:46.267Z,11.18
2023-04-20T21:53:12.938Z,11.15
2023-04-20T21:55:39.664Z,10.82
2023-04-20T21:58:06.367Z,10.85
2023-04-20T22:00:33.071Z,10.30
2023-04-20T22:02:59.963Z,11.40
2023-04-20T22:05:27.795Z,10.70
2023-04-20T22:07:54.529Z,10.95
2023-04-20T22:10:21.278Z,11.20
2023-04-20T22:12:48.047Z,10.60
2023-04-20T22:15:15.393Z,10.27
2023-04-20T22:17:45.328Z,10.48
2023-04-20T22:20:13.252Z,11.40
2023-04-20T22:22:40.212Z,11.52
2023-04-20T22:25:09.038Z,11.10
2023-04-20T22:27:37.027Z,11.63
2023-04-20T22:30:05.566Z,11.73
2023-04-20T22:32:32.384Z,11.82
2023-04-20T22:34:59.054Z,12.05
2023-04-20T22:37:26.012Z,11.75
2023-04-20T22:39:52.717Z,11.60
2023-04-20T22:42:19.493Z,11.60
2023-04-20T22:44:46.315Z,12.35
2023-04-20T22:47:13.181Z,12.50
2023-04-20T22:49:40.154Z,11.95
2023-04-20T22:52:06.884Z,12.50
2023-04-20T22:54:33.605Z,11.88
2023-04-20T22:57:01.205Z,13.00
2023-04-20T22:59:28.020Z,12.63
2023-04-20T23:01:54.753Z,12.55
2023-04-20T23:04:21.591Z,13.32
2023-04-20T23:06:48.354Z,13.73
2023-04-20T23:09:20.411Z,14.00
2023-04-20T23:11:47.400Z,14.45
2023-04-20T23:14:14.158Z,15.60
2023-04-20T23:16:41.067Z,14.30
2023-04-20T23:19:07.834Z,14.85
2023-04-20T23:21:34.740Z,16.10
2023-04-20T23:24:01.456Z,15.73
2023-04-20T23:26:28.198Z,15.57
2023-04-20T23:28:55.007Z,15.48
2023-04-20T23:31:21.817Z,16.63
2023-04-20T23:33:48.827Z,16.52
2023-04-20T23:36:15.841Z,16.23
2023-04-20T23:38:42.992Z,16.55
2023-04-20T23:41:14.584Z,17.08
2023-04-20T23:43:41.907Z,17.67
2023-04-20T23:46:08.967Z,17.75
2023-04-20T23:48:35.826Z,17.05
2023-04-20T23:51:02.590Z,16.92
2023-04-20T23:53:29.431Z,18.23
2023-04-20T23:55:56.240Z,17.20
2023-04-20T23:58:27.173Z,18.25
